Time;durP1;ratioP1;P1;durP2;ratioP2;P2;SDS_P1;SDS_P2;PMS_P1;PMS_P2;Temp;Humidity;BMP_temperature;BMP_pressure;BME280_temperature;BME280_humidity;BME280_pressure;Samples;Min_cycle;Max_cycle;Signal;HPM_P1;HPM_P2
2023/06/04 00:01:56;;;;;;;;;;;10.20;53.00;;;;;;4095091;28;19933;-84
2023/06/04 00:04:17;;;;;;;;;;;10.10;53.60;;;;;;4110039;28;19999;-86
2023/06/04 00:06:38;;;;;;;;;;;10.20;54.30;;;;;;4110185;28;19919;-84
2023/06/04 00:08:59;;;;;;;;;;;10.10;54.20;;;;;;4110509;28;19949;-87
2023/06/04 00:11:20;;;;;;;;;;;10.10;54.20;;;;;;4113010;28;19922;-86
2023/06/04 00:13:40;;;;;;;;;;;10.10;54.30;;;;;;4110961;28;19922;-88
2023/06/04 00:16:01;;;;;;;;;;;10.00;53.90;;;;;;4118829;28;19926;-85
2023/06/04 00:18:22;;;;;;;;;;;10.00;54.50;;;;;;4116009;28;19902;-86
2023/06/04 00:20:43;;;;;;;;;;;10.00;54.60;;;;;;4108218;28;19918;-87
2023/06/04 00:23:04;;;;;;;;;;;10.00;54.80;;;;;;4109129;28;19926;-85
2023/06/04 00:25:25;;;;;;;;;;;9.90;54.70;;;;;;4098982;28;19925;-84
2023/06/04 00:27:45;;;;;;;;;;;9.80;54.50;;;;;;4109837;28;19918;-84
2023/06/04 00:30:06;;;;;;;;;;;10.00;54.90;;;;;;4098133;28;19918;-85
2023/06/04 00:32:27;;;;;;;;;;;9.90;55.00;;;;;;4095693;28;19966;-83
2023/06/04 00:34:51;;;;;;;;;;;9.80;55.00;;;;;;4100412;28;19922;-85
2023/06/04 00:37:12;;;;;;;;;;;9.80;55.20;;;;;;4107685;28;19918;-84
2023/06/04 00:39:34;;;;;;;;;;;9.80;55.50;;;;;;4094990;28;19920;-85
2023/06/04 00:41:55;;;;;;;;;;;9.80;55.90;;;;;;4096941;28;19923;-86
2023/06/04 00:44:16;;;;;;;;;;;9.70;56.10;;;;;;4105143;28;19918;-85
2023/06/04 00:46:37;;;;;;;;;;;9.70;56.10;;;;;;4106300;28;20646;-86
2023/06/04 00:48:58;;;;;;;;;;;9.70;56.10;;;;;;4091384;28;19926;-85
2023/06/04 00:51:20;;;;;;;;;;;9.60;56.40;;;;;;4094776;28;19977;-87
2023/06/04 00:53:41;;;;;;;;;;;9.50;56.20;;;;;;4101299;28;20238;-86
2023/06/04 00:56:04;;;;;;;;;;;9.50;56.40;;;;;;4107201;28;20584;-85
2023/06/04 00:58:26;;;;;;;;;;;9.50;56.30;;;;;;4106396;28;19919;-85
2023/06/04 01:00:47;;;;;;;;;;;9.50;56.10;;;;;;4104721;28;19915;-85
2023/06/04 01:03:11;;;;;;;;;;;9.40;56.10;;;;;;4092102;28;19928;-85
2023/06/04 01:05:32;;;;;;;;;;;9.40;56.10;;;;;;4104952;28;19949;-84
2023/06/04 01:07:53;;;;;;;;;;;9.40;56.10;;;;;;4105403;28;19918;-85
2023/06/04 01:10:14;;;;;;;;;;;9.30;56.00;;;;;;4099092;28;19934;-86
2023/06/04 01:12:38;;;;;;;;;;;9.30;56.20;;;;;;4106215;28;19918;-85
2023/06/04 01:14:59;;;;;;;;;;;9.30;56.40;;;;;;4102543;28;19922;-85
2023/06/04 01:17:37;;;;;;;;;;;9.30;56.30;;;;;;4105107;28;19969;-86
2023/06/04 01:20:13;;;;;;;;;;;9.20;56.40;;;;;;4107757;28;19910;-83
2023/06/04 01:22:46;;;;;;;;;;;9.20;56.40;;;;;;4093225;28;20437;-84
2023/06/04 01:25:26;;;;;;;;;;;9.20;56.30;;;;;;4099735;28;19954;-85
2023/06/04 01:27:49;;;;;;;;;;;9.10;56.30;;;;;;4089603;28;20616;-87
2023/06/04 01:30:10;;;;;;;;;;;9.10;56.20;;;;;;4101951;28;20523;-85
2023/06/04 01:32:31;;;;;;;;;;;9.00;56.10;;;;;;4106890;28;19933;-88
2023/06/04 01:34:52;;;;;;;;;;;9.00;56.00;;;;;;4103537;28;19972;-83
2023/06/04 01:37:16;;;;;;;;;;;9.00;56.20;;;;;;4099859;28;19918;-83
2023/06/04 01:39:37;;;;;;;;;;;8.90;56.20;;;;;;4105270;28;20405;-86
2023/06/04 01:41:58;;;;;;;;;;;8.90;56.40;;;;;;4108373;28;19925;-84
2023/06/04 01:44:19;;;;;;;;;;;8.90;56.90;;;;;;4104673;28;19977;-84
2023/06/04 01:46:40;;;;;;;;;;;8.80;56.20;;;;;;4096618;28;19922;-84
2023/06/04 01:49:01;;;;;;;;;;;8.80;56.30;;;;;;4095828;28;19915;-86
2023/06/04 01:51:22;;;;;;;;;;;8.80;56.20;;;;;;4104767;28;20013;-85
2023/06/04 01:53:43;;;;;;;;;;;8.70;56.20;;;;;;4091676;28;19919;-86
2023/06/04 01:56:03;;;;;;;;;;;8.70;56.20;;;;;;4092630;28;20477;-84
2023/06/04 01:58:26;;;;;;;;;;;8.60;56.30;;;;;;4102883;28;19950;-84
2023/06/04 02:00:49;;;;;;;;;;;8.60;56.30;;;;;;4099894;28;20516;-81
2023/06/04 02:03:12;;;;;;;;;;;8.60;56.10;;;;;;4102138;28;19920;-83
2023/06/04 02:05:33;;;;;;;;;;;8.50;55.80;;;;;;4105928;28;19918;-86
2023/06/04 02:07:54;;;;;;;;;;;8.50;56.00;;;;;;4104542;28;19921;-85
2023/06/04 02:10:15;;;;;;;;;;;8.40;56.20;;;;;;4089571;28;20426;-85
2023/06/04 02:12:37;;;;;;;;;;;8.40;56.20;;;;;;4105288;28;21082;-84
2023/06/04 02:14:58;;;;;;;;;;;8.40;56.30;;;;;;4105676;28;19926;-87
2023/06/04 02:17:18;;;;;;;;;;;8.30;56.40;;;;;;4106166;28;20012;-86
2023/06/04 02:19:44;;;;;;;;;;;8.30;56.40;;;;;;4089465;28;19973;-85
2023/06/04 02:22:05;;;;;;;;;;;8.30;56.50;;;;;;4103159;28;19929;-83
2023/06/04 02:24:26;;;;;;;;;;;8.20;56.20;;;;;;4104926;28;19918;-86
2023/06/04 02:26:47;;;;;;;;;;;8.20;55.90;;;;;;4110755;28;19918;-83
2023/06/04 02:29:08;;;;;;;;;;;8.10;55.60;;;;;;4104222;28;19993;-84
2023/06/04 02:31:28;;;;;;;;;;;8.10;55.50;;;;;;4104765;28;20325;-84
2023/06/04 02:33:49;;;;;;;;;;;8.00;55.40;;;;;;4094599;28;19995;-85
2023/06/04 02:36:10;;;;;;;;;;;8.00;55.70;;;;;;4101700;28;19982;-85
2023/06/04 02:38:31;;;;;;;;;;;7.90;55.80;;;;;;4096732;28;19978;-84
2023/06/04 02:40:52;;;;;;;;;;;7.90;56.00;;;;;;4087822;28;20927;-87
2023/06/04 02:43:12;;;;;;;;;;;7.90;56.30;;;;;;4101812;28;19914;-82
2023/06/04 02:45:33;;;;;;;;;;;7.90;56.40;;;;;;4105557;28;20033;-83
2023/06/04 02:47:54;;;;;;;;;;;7.80;56.40;;;;;;4106251;28;20008;-83
2023/06/04 02:50:15;;;;;;;;;;;7.80;56.40;;;;;;4102206;28;19931;-84
2023/06/04 02:52:39;;;;;;;;;;;7.70;56.20;;;;;;4107233;28;19961;-85
2023/06/04 02:55:02;;;;;;;;;;;7.80;56.40;;;;;;4106835;28;19922;-83
2023/06/04 02:57:23;;;;;;;;;;;7.70;56.40;;;;;;4110317;28;19918;-83
2023/06/04 02:59:44;;;;;;;;;;;7.60;56.60;;;;;;4105352;28;19918;-88
2023/06/04 03:02:05;;;;;;;;;;;7.60;56.50;;;;;;4101409;28;19926;-84
2023/06/04 03:04:26;;;;;;;;;;;7.60;56.60;;;;;;4095267;28;19918;-83
2023/06/04 03:06:47;;;;;;;;;;;7.50;56.50;;;;;;4107958;28;19914;-87
2023/06/04 03:09:07;;;;;;;;;;;7.50;56.60;;;;;;4108740;28;20293;-85
2023/06/04 03:11:28;;;;;;;;;;;7.50;56.80;;;;;;4092363;28;19921;-86
2023/06/04 03:13:51;;;;;;;;;;;7.50;56.90;;;;;;4109841;28;19964;-85
2023/06/04 03:16:12;;;;;;;;;;;7.40;56.90;;;;;;4097166;28;19922;-82
2023/06/04 03:18:33;;;;;;;;;;;7.40;57.00;;;;;;4107000;28;20313;-86
2023/06/04 03:20:54;;;;;;;;;;;7.40;57.00;;;;;;4107615;28;19924;-85
2023/06/04 03:23:15;;;;;;;;;;;7.40;57.20;;;;;;4117833;28;20033;-85
2023/06/04 03:25:36;;;;;;;;;;;7.40;57.20;;;;;;4114711;28;21524;-82
2023/06/04 03:27:56;;;;;;;;;;;7.40;57.30;;;;;;4096674;28;19982;-83
2023/06/04 03:30:17;;;;;;;;;;;7.40;57.40;;;;;;4106955;28;20301;-83
2023/06/04 03:32:38;;;;;;;;;;;7.40;57.60;;;;;;4110527;28;20409;-84
2023/06/04 03:34:59;;;;;;;;;;;7.30;57.60;;;;;;4107595;28;20368;-82
2023/06/04 03:37:20;;;;;;;;;;;7.30;57.40;;;;;;4109276;28;19918;-84
2023/06/04 03:39:41;;;;;;;;;;;7.40;57.20;;;;;;4099514;28;19918;-82
2023/06/04 03:42:02;;;;;;;;;;;7.30;57.40;;;;;;4103391;28;20239;-84
2023/06/04 03:44:23;;;;;;;;;;;7.40;57.40;;;;;;4109116;28;19918;-85
2023/06/04 03:46:44;;;;;;;;;;;7.40;57.60;;;;;;4107487;28;20406;-84
2023/06/04 03:49:05;;;;;;;;;;;7.40;58.10;;;;;;4111211;28;19918;-85
2023/06/04 03:51:26;;;;;;;;;;;7.40;58.60;;;;;;4109043;28;19964;-84
2023/06/04 03:53:46;;;;;;;;;;;7.50;59.20;;;;;;4106525;28;19919;-84
2023/06/04 03:56:07;;;;;;;;;;;7.50;59.80;;;;;;4106020;28;19922;-85
2023/06/04 03:58:28;;;;;;;;;;;7.50;60.30;;;;;;4092605;28;19928;-83
2023/06/04 04:00:49;;;;;;;;;;;7.60;60.20;;;;;;4105799;28;19922;-84
2023/06/04 04:03:10;;;;;;;;;;;7.60;60.00;;;;;;4105168;28;19926;-84
2023/06/04 04:05:31;;;;;;;;;;;7.70;60.70;;;;;;4093992;28;19930;-84
2023/06/04 04:07:52;;;;;;;;;;;7.80;61.50;;;;;;4104557;28;19926;-86
2023/06/04 04:10:12;;;;;;;;;;;7.80;62.70;;;;;;4105095;28;19933;-81
2023/06/04 04:12:33;;;;;;;;;;;8.00;64.20;;;;;;4095189;28;19918;-86
2023/06/04 04:14:54;;;;;;;;;;;8.00;64.10;;;;;;4094072;28;19926;-85
2023/06/04 04:17:15;;;;;;;;;;;8.10;64.50;;;;;;4107483;28;20305;-83
2023/06/04 04:19:36;;;;;;;;;;;8.20;64.70;;;;;;4089932;28;20127;-86
2023/06/04 04:21:57;;;;;;;;;;;8.30;65.10;;;;;;4101824;28;20318;-86
2023/06/04 04:24:24;;;;;;;;;;;8.40;65.40;;;;;;4108704;28;19914;-84
2023/06/04 04:26:46;;;;;;;;;;;8.60;66.00;;;;;;4090297;28;20915;-85
2023/06/04 04:29:08;;;;;;;;;;;8.70;66.00;;;;;;4092455;28;19925;-85
2023/06/04 04:31:30;;;;;;;;;;;8.80;66.20;;;;;;4088027;28;19926;-85
2023/06/04 04:33:51;;;;;;;;;;;8.90;65.70;;;;;;4095348;28;21611;-84
2023/06/04 04:36:13;;;;;;;;;;;9.10;66.20;;;;;;4090831;28;19926;-87
2023/06/04 04:38:34;;;;;;;;;;;9.20;66.40;;;;;;4090793;28;19919;-85
2023/06/04 04:40:57;;;;;;;;;;;9.40;65.00;;;;;;4107609;28;19931;-88
2023/06/04 04:43:30;;;;;;;;;;;9.50;64.40;;;;;;4098389;28;20436;-87
2023/06/04 04:45:51;;;;;;;;;;;9.60;64.20;;;;;;4112729;28;19914;-86
2023/06/04 04:48:11;;;;;;;;;;;9.70;64.50;;;;;;4103044;28;19922;-85
2023/06/04 04:50:32;;;;;;;;;;;9.80;63.50;;;;;;4094076;28;19962;-86
2023/06/04 04:53:00;;;;;;;;;;;9.90;63.20;;;;;;4109773;28;19914;-86
2023/06/04 04:55:23;;;;;;;;;;;10.00;61.60;;;;;;4111400;28;19986;-87
2023/06/04 04:57:47;;;;;;;;;;;10.00;61.00;;;;;;4102842;28;19970;-85
2023/06/04 05:00:09;;;;;;;;;;;10.20;61.80;;;;;;4098952;28;19949;-85
2023/06/04 05:02:30;;;;;;;;;;;10.20;62.80;;;;;;4096881;28;20230;-85
2023/06/04 05:04:51;;;;;;;;;;;10.40;62.80;;;;;;4113771;28;19918;-85
2023/06/04 05:07:17;;;;;;;;;;;10.40;61.90;;;;;;4114273;28;20405;-84
2023/06/04 05:09:38;;;;;;;;;;;10.50;61.50;;;;;;4112730;28;19922;-86
2023/06/04 05:11:58;;;;;;;;;;;10.60;61.90;;;;;;4108341;28;20421;-86
2023/06/04 05:14:19;;;;;;;;;;;10.60;61.90;;;;;;4094078;28;20412;-86
2023/06/04 05:16:40;;;;;;;;;;;10.70;62.50;;;;;;4108231;28;19960;-84
2023/06/04 05:19:01;;;;;;;;;;;10.80;62.00;;;;;;4106248;28;21281;-85
2023/06/04 05:21:22;;;;;;;;;;;10.90;62.20;;;;;;4105165;28;19922;-83
2023/06/04 05:23:45;;;;;;;;;;;11.00;63.30;;;;;;4106855;28;19945;-86
2023/06/04 05:26:05;;;;;;;;;;;11.00;63.30;;;;;;4107312;28;19918;-84
2023/06/04 05:28:27;;;;;;;;;;;11.00;64.00;;;;;;4094629;28;19973;-86
2023/06/04 05:30:48;;;;;;;;;;;11.10;62.50;;;;;;4105565;28;19918;-85
2023/06/04 05:33:17;;;;;;;;;;;11.10;61.00;;;;;;4108078;28;20353;-85
2023/06/04 05:35:41;;;;;;;;;;;11.20;62.00;;;;;;4111508;28;19989;-86
2023/06/04 05:38:02;;;;;;;;;;;11.20;62.30;;;;;;4109549;28;20029;-85
2023/06/04 05:40:22;;;;;;;;;;;11.30;62.40;;;;;;4113394;28;19928;-86
2023/06/04 05:42:43;;;;;;;;;;;11.30;61.90;;;;;;4108085;28;20029;-85
2023/06/04 05:45:05;;;;;;;;;;;11.30;61.50;;;;;;4106096;28;19922;-82
2023/06/04 05:47:28;;;;;;;;;;;11.40;61.50;;;;;;4098336;28;20044;-85
2023/06/04 05:49:50;;;;;;;;;;;11.40;60.80;;;;;;4107316;28;19918;-85
2023/06/04 05:52:10;;;;;;;;;;;11.40;60.40;;;;;;4114817;28;19922;-85
2023/06/04 05:54:32;;;;;;;;;;;11.50;61.10;;;;;;4101588;28;19937;-86
2023/06/04 05:56:53;;;;;;;;;;;11.50;60.70;;;;;;4114070;28;20773;-85
2023/06/04 05:59:14;;;;;;;;;;;11.60;60.90;;;;;;4111382;28;19978;-83
2023/06/04 06:01:36;;;;;;;;;;;11.60;60.70;;;;;;4095694;28;19918;-85
2023/06/04 06:03:57;;;;;;;;;;;11.60;60.80;;;;;;4118215;28;19925;-86
2023/06/04 06:06:20;;;;;;;;;;;11.70;60.40;;;;;;4099948;28;20415;-84
2023/06/04 06:08:41;;;;;;;;;;;11.70;60.50;;;;;;4113271;28;19918;-87
2023/06/04 06:11:04;;;;;;;;;;;11.70;60.60;;;;;;4121033;28;20187;-85
2023/06/04 06:13:24;;;;;;;;;;;11.70;60.80;;;;;;4114266;28;19924;-86
2023/06/04 06:15:46;;;;;;;;;;;11.80;60.80;;;;;;4119539;28;19918;-85
2023/06/04 06:18:07;;;;;;;;;;;11.80;61.00;;;;;;4115416;28;19914;-85
2023/06/04 06:20:29;;;;;;;;;;;11.70;60.90;;;;;;4115918;28;19918;-83
2023/06/04 06:22:50;;;;;;;;;;;11.80;61.10;;;;;;4114217;28;20342;-85
2023/06/04 06:25:13;;;;;;;;;;;11.80;60.80;;;;;;4105815;28;19921;-84
2023/06/04 06:27:34;;;;;;;;;;;11.80;60.90;;;;;;4122205;28;19915;-86
2023/06/04 06:29:56;;;;;;;;;;;11.80;60.70;;;;;;4131316;28;19921;-86
2023/06/04 06:32:17;;;;;;;;;;;11.90;61.10;;;;;;4133123;28;19909;-87
2023/06/04 06:34:38;;;;;;;;;;;11.80;60.90;;;;;;4125075;28;19914;-86
2023/06/04 06:36:59;;;;;;;;;;;11.90;61.20;;;;;;4129450;28;19934;-85
2023/06/04 06:39:20;;;;;;;;;;;11.90;61.40;;;;;;4128631;28;20159;-87
2023/06/04 06:41:40;;;;;;;;;;;11.90;60.80;;;;;;4112168;28;19962;-83
2023/06/04 06:44:01;;;;;;;;;;;11.90;61.10;;;;;;4109305;28;20403;-83
2023/06/04 06:46:22;;;;;;;;;;;11.90;61.40;;;;;;4110073;28;19918;-85
2023/06/04 06:48:45;;;;;;;;;;;12.00;61.10;;;;;;4100434;28;19941;-84
2023/06/04 06:51:05;;;;;;;;;;;12.00;61.30;;;;;;4108426;28;20220;-84
2023/06/04 06:53:26;;;;;;;;;;;12.00;62.00;;;;;;4113993;28;20356;-86
2023/06/04 06:55:47;;;;;;;;;;;12.00;61.80;;;;;;4092508;28;20058;-86
2023/06/04 06:58:08;;;;;;;;;;;12.00;61.60;;;;;;4096200;28;19918;-87
2023/06/04 07:00:29;;;;;;;;;;;12.00;61.90;;;;;;4105736;28;19922;-85
2023/06/04 07:02:50;;;;;;;;;;;12.10;61.90;;;;;;4107768;28;19925;-85
2023/06/04 07:05:11;;;;;;;;;;;12.20;61.60;;;;;;4111544;28;19992;-84
2023/06/04 07:07:32;;;;;;;;;;;12.10;61.30;;;;;;4113797;28;20068;-85
2023/06/04 07:09:53;;;;;;;;;;;12.20;61.30;;;;;;4096071;28;19918;-83
2023/06/04 07:12:14;;;;;;;;;;;12.20;61.30;;;;;;4107300;28;19914;-83
2023/06/04 07:14:34;;;;;;;;;;;12.20;61.10;;;;;;4107958;28;19926;-83
2023/06/04 07:16:55;;;;;;;;;;;12.30;61.60;;;;;;4109577;28;19933;-85
2023/06/04 07:19:16;;;;;;;;;;;12.40;61.40;;;;;;4108799;28;19918;-83
2023/06/04 07:21:37;;;;;;;;;;;12.50;61.20;;;;;;4110755;28;19928;-85
2023/06/04 07:23:58;;;;;;;;;;;12.40;61.00;;;;;;4097901;28;20423;-85
2023/06/04 07:26:19;;;;;;;;;;;12.50;61.10;;;;;;4097511;28;19919;-87
2023/06/04 07:28:39;;;;;;;;;;;12.60;60.90;;;;;;4109845;28;20318;-84
2023/06/04 07:31:00;;;;;;;;;;;12.60;60.90;;;;;;4110661;28;20299;-86
2023/06/04 07:33:22;;;;;;;;;;;12.70;60.60;;;;;;4111229;28;19915;-84
2023/06/04 07:35:42;;;;;;;;;;;12.70;60.40;;;;;;4112729;28;19917;-84
2023/06/04 07:38:03;;;;;;;;;;;12.80;60.30;;;;;;4109264;28;19948;-85
2023/06/04 07:40:24;;;;;;;;;;;12.80;60.20;;;;;;4104887;28;19930;-85
2023/06/04 07:42:46;;;;;;;;;;;12.90;60.00;;;;;;4108466;28;19961;-85
2023/06/04 07:45:07;;;;;;;;;;;12.90;59.80;;;;;;4108121;28;19922;-85
2023/06/04 07:47:28;;;;;;;;;;;13.00;59.80;;;;;;4100822;28;19978;-87
2023/06/04 07:49:49;;;;;;;;;;;13.00;59.80;;;;;;4114596;28;19919;-86
2023/06/04 07:52:10;;;;;;;;;;;13.10;59.80;;;;;;4110796;28;19925;-86
2023/06/04 07:54:31;;;;;;;;;;;13.20;59.70;;;;;;4097421;28;20354;-85
2023/06/04 07:56:55;;;;;;;;;;;13.20;59.60;;;;;;4096052;28;19955;-84
2023/06/04 07:59:16;;;;;;;;;;;13.30;59.40;;;;;;4112271;28;19921;-84
2023/06/04 08:01:37;;;;;;;;;;;13.40;59.10;;;;;;4114402;28;19925;-85
2023/06/04 08:03:58;;;;;;;;;;;13.50;59.00;;;;;;4099274;28;19922;-87
2023/06/04 08:06:19;;;;;;;;;;;13.60;58.80;;;;;;4112194;28;20137;-85
2023/06/04 08:08:48;;;;;;;;;;;13.60;58.60;;;;;;4097751;28;19938;-85
2023/06/04 08:11:09;;;;;;;;;;;13.80;58.70;;;;;;4095353;28;20299;-87
2023/06/04 08:13:30;;;;;;;;;;;13.90;58.70;;;;;;4104085;28;19918;-86
2023/06/04 08:15:50;;;;;;;;;;;14.00;58.60;;;;;;4110592;28;19936;-86
2023/06/04 08:18:11;;;;;;;;;;;14.10;58.50;;;;;;4107409;28;19918;-87
2023/06/04 08:20:32;;;;;;;;;;;14.20;58.40;;;;;;4108473;28;19938;-85
2023/06/04 08:22:53;;;;;;;;;;;14.30;58.20;;;;;;4106910;28;20517;-86
2023/06/04 08:25:14;;;;;;;;;;;14.40;57.80;;;;;;4104922;28;19925;-87
2023/06/04 08:27:35;;;;;;;;;;;14.60;57.70;;;;;;4107314;28;19972;-87
2023/06/04 08:29:56;;;;;;;;;;;14.60;57.20;;;;;;4109556;28;19918;-85
2023/06/04 08:32:17;;;;;;;;;;;14.70;56.40;;;;;;4108966;28;19928;-86
2023/06/04 08:34:38;;;;;;;;;;;14.70;56.30;;;;;;4111059;28;19925;-86
2023/06/04 08:36:58;;;;;;;;;;;14.80;56.00;;;;;;4109290;28;20634;-89
2023/06/04 08:39:20;;;;;;;;;;;14.90;56.00;;;;;;4108395;28;19918;-85
2023/06/04 08:41:45;;;;;;;;;;;15.00;55.60;;;;;;4111656;28;19918;-86
2023/06/04 08:44:06;;;;;;;;;;;15.00;55.50;;;;;;4106629;28;20427;-87
2023/06/04 08:46:31;;;;;;;;;;;15.10;55.20;;;;;;4111792;28;19924;-87
2023/06/04 08:48:53;;;;;;;;;;;15.00;54.80;;;;;;4108241;28;21247;-86
2023/06/04 08:51:15;;;;;;;;;;;15.10;54.70;;;;;;4102102;28;20132;-85
2023/06/04 08:53:36;;;;;;;;;;;15.00;54.70;;;;;;4091559;28;19934;-86
2023/06/04 08:55:57;;;;;;;;;;;15.00;54.80;;;;;;4099811;28;19930;-86
2023/06/04 08:58:19;;;;;;;;;;;15.10;54.70;;;;;;4108234;28;19977;-86
2023/06/04 09:00:39;;;;;;;;;;;15.10;54.60;;;;;;4095617;28;19922;-86
2023/06/04 09:03:01;;;;;;;;;;;15.00;54.70;;;;;;4105727;28;20395;-85
2023/06/04 09:05:23;;;;;;;;;;;14.90;54.60;;;;;;4097148;28;19918;-87
2023/06/04 09:07:43;;;;;;;;;;;14.90;54.60;;;;;;4098107;28;19927;-87
2023/06/04 09:10:06;;;;;;;;;;;14.80;54.70;;;;;;4115311;28;19949;-88
2023/06/04 09:12:27;;;;;;;;;;;14.80;54.70;;;;;;4093567;28;20343;-86
2023/06/04 09:14:50;;;;;;;;;;;14.80;54.80;;;;;;4095758;28;19927;-87
2023/06/04 09:17:11;;;;;;;;;;;14.80;54.90;;;;;;4111086;28;19930;-87
2023/06/04 09:19:32;;;;;;;;;;;14.80;55.10;;;;;;4109531;28;19922;-87
2023/06/04 09:21:56;;;;;;;;;;;14.80;55.10;;;;;;4110642;28;20121;-87
2023/06/04 09:24:18;;;;;;;;;;;14.70;55.00;;;;;;4108662;28;19957;-87
2023/06/04 09:26:39;;;;;;;;;;;14.70;55.30;;;;;;4103711;28;20203;-87
2023/06/04 09:28:59;;;;;;;;;;;14.70;55.40;;;;;;4106469;28;19918;-86
2023/06/04 09:31:22;;;;;;;;;;;14.70;55.70;;;;;;4108029;28;19922;-86
2023/06/04 09:33:43;;;;;;;;;;;14.70;55.70;;;;;;4112142;28;19914;-84
2023/06/04 09:36:04;;;;;;;;;;;14.60;55.70;;;;;;4111005;28;20039;-85
2023/06/04 09:38:33;;;;;;;;;;;14.60;55.80;;;;;;4104245;28;19933;-88
2023/06/04 09:40:53;;;;;;;;;;;14.60;56.70;;;;;;4122411;28;19917;-88
2023/06/04 09:43:21;;;;;;;;;;;14.70;56.00;;;;;;4101554;28;19923;-84
2023/06/04 09:45:42;;;;;;;;;;;14.60;55.80;;;;;;4108750;28;19918;-86
2023/06/04 09:48:04;;;;;;;;;;;14.60;55.90;;;;;;4097092;28;19919;-85
2023/06/04 09:50:26;;;;;;;;;;;14.60;56.00;;;;;;4110368;28;19946;-87
2023/06/04 09:52:47;;;;;;;;;;;14.70;56.00;;;;;;4106218;28;19925;-85
2023/06/04 09:55:18;;;;;;;;;;;14.60;56.20;;;;;;4106957;28;19926;-84
2023/06/04 09:57:39;;;;;;;;;;;14.60;56.20;;;;;;4104685;28;19918;-87
2023/06/04 10:00:01;;;;;;;;;;;14.60;56.20;;;;;;4110474;28;20386;-85
2023/06/04 10:02:22;;;;;;;;;;;14.60;56.40;;;;;;4100153;28;19930;-84
2023/06/04 10:04:45;;;;;;;;;;;14.70;56.30;;;;;;4106954;28;20010;-86
2023/06/04 10:07:07;;;;;;;;;;;14.70;56.50;;;;;;4103733;28;19925;-86
2023/06/04 10:09:28;;;;;;;;;;;14.70;56.50;;;;;;4110190;28;19918;-87
2023/06/04 10:11:53;;;;;;;;;;;14.70;56.30;;;;;;4113102;28;19922;-86
2023/06/04 10:14:24;;;;;;;;;;;14.60;56.40;;;;;;4108336;28;19934;-88
2023/06/04 10:16:46;;;;;;;;;;;14.60;56.20;;;;;;4098653;28;20644;-86
2023/06/04 10:19:07;;;;;;;;;;;14.60;56.40;;;;;;4105279;28;19974;-87
2023/06/04 10:21:31;;;;;;;;;;;14.60;56.20;;;;;;4086891;28;19998;-88
2023/06/04 10:23:52;;;;;;;;;;;14.60;56.30;;;;;;4109000;28;19926;-86
2023/06/04 10:26:14;;;;;;;;;;;14.60;56.30;;;;;;4108320;28;19926;-87
2023/06/04 10:28:35;;;;;;;;;;;14.50;56.30;;;;;;4107939;28;19918;-87
2023/06/04 10:30:55;;;;;;;;;;;14.50;56.50;;;;;;4094031;28;20600;-85
2023/06/04 10:33:20;;;;;;;;;;;14.60;56.60;;;;;;4110201;28;19918;-87
2023/06/04 10:35:41;;;;;;;;;;;14.60;56.50;;;;;;4109291;28;19949;-85
2023/06/04 10:38:05;;;;;;;;;;;14.60;56.70;;;;;;4110802;28;19918;-86
2023/06/04 10:40:33;;;;;;;;;;;14.60;56.50;;;;;;4112095;28;19914;-86
2023/06/04 10:42:54;;;;;;;;;;;14.60;56.60;;;;;;4113975;28;19986;-83
2023/06/04 10:45:14;;;;;;;;;;;14.60;56.50;;;;;;4108229;28;20297;-85
2023/06/04 10:47:39;;;;;;;;;;;14.60;56.50;;;;;;4113974;28;20001;-86
2023/06/04 10:50:10;;;;;;;;;;;14.60;56.50;;;;;;4105077;28;19930;-84
2023/06/04 10:52:31;;;;;;;;;;;14.60;56.50;;;;;;4111823;28;19918;-86
2023/06/04 10:55:02;;;;;;;;;;;14.60;56.50;;;;;;4110316;28;20040;-86
2023/06/04 10:57:23;;;;;;;;;;;14.60;56.60;;;;;;4109152;28;19946;-86
2023/06/04 10:59:53;;;;;;;;;;;14.60;56.70;;;;;;4097508;28;19923;-86
2023/06/04 11:02:15;;;;;;;;;;;14.60;56.70;;;;;;4112012;28;19922;-85
2023/06/04 11:04:38;;;;;;;;;;;14.70;56.60;;;;;;4099397;28;19910;-85
2023/06/04 11:07:01;;;;;;;;;;;14.60;56.60;;;;;;4111544;28;19919;-86
2023/06/04 11:09:22;;;;;;;;;;;14.60;56.80;;;;;;4101773;28;20001;-85
2023/06/04 11:11:43;;;;;;;;;;;14.70;56.90;;;;;;4097293;28;19922;-87
2023/06/04 11:14:08;;;;;;;;;;;14.80;57.00;;;;;;4107435;28;20206;-85
2023/06/04 11:16:31;;;;;;;;;;;14.70;57.00;;;;;;4106913;28;19918;-87
2023/06/04 11:18:56;;;;;;;;;;;14.80;57.10;;;;;;4114594;28;20436;-86
2023/06/04 11:21:17;;;;;;;;;;;14.80;57.10;;;;;;4113092;28;19930;-86
2023/06/04 11:23:38;;;;;;;;;;;14.80;56.90;;;;;;4108979;28;19918;-87
2023/06/04 11:25:59;;;;;;;;;;;14.90;56.90;;;;;;4113371;28;19922;-85
2023/06/04 11:28:23;;;;;;;;;;;14.90;56.80;;;;;;4114559;28;19968;-83
2023/06/04 11:30:44;;;;;;;;;;;14.90;56.90;;;;;;4113022;28;19933;-89
2023/06/04 11:33:05;;;;;;;;;;;15.00;56.80;;;;;;4109384;28;19918;-85
2023/06/04 11:35:26;;;;;;;;;;;15.00;57.00;;;;;;4111667;28;19922;-88
2023/06/04 11:37:54;;;;;;;;;;;15.00;56.90;;;;;;4109965;28;19911;-86
2023/06/04 11:40:17;;;;;;;;;;;15.10;56.90;;;;;;4107679;28;19922;-85
2023/06/04 11:42:42;;;;;;;;;;;15.10;56.80;;;;;;4107442;28;19923;-85
2023/06/04 11:45:04;;;;;;;;;;;15.20;56.80;;;;;;4110024;28;19914;-89
2023/06/04 11:47:24;;;;;;;;;;;15.20;56.70;;;;;;4109149;28;19942;-87
2023/06/04 11:49:45;;;;;;;;;;;15.30;56.80;;;;;;4093615;28;19969;-87
2023/06/04 11:52:07;;;;;;;;;;;15.30;56.60;;;;;;4110029;28;20294;-87
2023/06/04 11:54:28;;;;;;;;;;;15.40;56.40;;;;;;4098626;28;19918;-87
2023/06/04 11:56:50;;;;;;;;;;;15.40;56.40;;;;;;4111800;28;19929;-87
2023/06/04 11:59:15;;;;;;;;;;;15.40;56.30;;;;;;4103750;28;19919;-88
2023/06/04 12:01:36;;;;;;;;;;;15.40;56.30;;;;;;4095556;28;19925;-85
2023/06/04 12:03:57;;;;;;;;;;;15.60;56.30;;;;;;4117143;28;19924;-86
2023/06/04 12:06:19;;;;;;;;;;;15.50;56.00;;;;;;4114057;28;20178;-87
2023/06/04 12:08:49;;;;;;;;;;;15.50;56.00;;;;;;4115947;28;19918;-86
2023/06/04 12:11:10;;;;;;;;;;;15.50;56.00;;;;;;4113946;28;19922;-87
2023/06/04 12:13:36;;;;;;;;;;;15.60;56.00;;;;;;4113810;28;19929;-86
2023/06/04 12:16:00;;;;;;;;;;;15.50;55.80;;;;;;4128712;28;19978;-86
2023/06/04 12:18:24;;;;;;;;;;;15.60;56.00;;;;;;4104735;28;19918;-86
2023/06/04 12:20:45;;;;;;;;;;;15.60;56.10;;;;;;4111384;28;19918;-88
2023/06/04 12:23:07;;;;;;;;;;;15.70;56.00;;;;;;4114339;28;19917;-85
2023/06/04 12:25:28;;;;;;;;;;;15.70;55.80;;;;;;4117981;28;19985;-86
2023/06/04 12:27:52;;;;;;;;;;;15.80;55.60;;;;;;4117311;28;19929;-84
2023/06/04 12:30:13;;;;;;;;;;;15.70;55.60;;;;;;4113695;28;19918;-83
2023/06/04 12:32:37;;;;;;;;;;;15.80;55.50;;;;;;4120732;28;19996;-84
2023/06/04 12:34:57;;;;;;;;;;;15.80;55.60;;;;;;4122631;28;20161;-86
2023/06/04 12:37:18;;;;;;;;;;;15.80;55.70;;;;;;4130064;28;19902;-89
2023/06/04 12:39:39;;;;;;;;;;;15.90;55.80;;;;;;4130649;28;19926;-88
2023/06/04 12:42:00;;;;;;;;;;;15.90;55.90;;;;;;4116912;28;19927;-88
2023/06/04 12:44:21;;;;;;;;;;;15.90;55.90;;;;;;4111737;28;20132;-87
2023/06/04 12:46:42;;;;;;;;;;;16.10;55.60;;;;;;4116740;28;19982;-88
2023/06/04 12:49:03;;;;;;;;;;;16.20;56.00;;;;;;4127386;28;19974;-88
2023/06/04 12:51:24;;;;;;;;;;;16.30;55.80;;;;;;4115827;28;20275;-87
2023/06/04 12:53:44;;;;;;;;;;;16.30;55.40;;;;;;4112087;28;19984;-85
2023/06/04 12:56:05;;;;;;;;;;;16.30;55.20;;;;;;4108957;28;19922;-85
2023/06/04 12:58:26;;;;;;;;;;;16.50;55.40;;;;;;4110856;28;19988;-86
2023/06/04 13:00:50;;;;;;;;;;;16.50;55.30;;;;;;4107302;28;20304;-87
2023/06/04 13:03:11;;;;;;;;;;;16.60;55.30;;;;;;4104364;28;19913;-87
2023/06/04 13:05:32;;;;;;;;;;;16.70;55.30;;;;;;4106414;28;19980;-86
2023/06/04 13:07:52;;;;;;;;;;;16.80;55.10;;;;;;4107334;28;20013;-86
2023/06/04 13:10:13;;;;;;;;;;;16.90;55.10;;;;;;4108858;28;20342;-86
2023/06/04 13:12:34;;;;;;;;;;;16.90;54.80;;;;;;4095701;28;20453;-87
2023/06/04 13:14:55;;;;;;;;;;;17.00;54.40;;;;;;4092585;28;20160;-86
2023/06/04 13:17:16;;;;;;;;;;;17.10;54.30;;;;;;4104697;28;19976;-86
2023/06/04 13:19:37;;;;;;;;;;;17.20;53.90;;;;;;4091051;28;20524;-89
2023/06/04 13:21:58;;;;;;;;;;;17.20;54.10;;;;;;4090973;28;19918;-88
2023/06/04 13:24:19;;;;;;;;;;;17.30;54.00;;;;;;4096690;28;19923;-86
2023/06/04 13:26:41;;;;;;;;;;;17.50;54.10;;;;;;4092987;28;19931;-87
2023/06/04 13:29:02;;;;;;;;;;;17.50;54.00;;;;;;4107295;28;19969;-89
2023/06/04 13:31:23;;;;;;;;;;;17.60;54.20;;;;;;4098690;28;19918;-88
2023/06/04 13:33:44;;;;;;;;;;;17.60;53.70;;;;;;4097943;28;19988;-88
2023/06/04 13:36:05;;;;;;;;;;;17.70;53.30;;;;;;4111229;28;19972;-88
2023/06/04 13:38:26;;;;;;;;;;;17.80;52.80;;;;;;4107290;28;19918;-87
2023/06/04 13:40:47;;;;;;;;;;;17.90;52.90;;;;;;4091584;28;19930;-86
2023/06/04 13:43:08;;;;;;;;;;;17.90;52.00;;;;;;4105285;28;19925;-88
2023/06/04 13:45:29;;;;;;;;;;;18.00;51.90;;;;;;4098797;28;19990;-89
2023/06/04 13:47:50;;;;;;;;;;;18.00;51.80;;;;;;4097090;28;20063;-87
2023/06/04 13:50:11;;;;;;;;;;;18.10;52.00;;;;;;4111804;28;19938;-88